sensor_id;sensor_type;location;lat;lon;timestamp;P1;durP1;ratioP1;P2;durP2;ratioP2
57752;SDS011;43583;53.132;6.574;2023-02-28T00:00:22;3.33;;;1.58;;
57752;SDS011;43583;53.132;6.574;2023-02-28T00:02:49;6.15;;;1.48;;
57752;SDS011;43583;53.132;6.574;2023-02-28T00:05:16;5.53;;;1.42;;
57752;SDS011;43583;53.132;6.574;2023-02-28T00:07:43;4.50;;;1.23;;
57752;SDS011;43583;53.132;6.574;2023-02-28T00:10:09;4.78;;;1.63;;
57752;SDS011;43583;53.132;6.574;2023-02-28T00:12:37;5.10;;;1.23;;
57752;SDS011;43583;53.132;6.574;2023-02-28T00:15:07;6.00;;;2.05;;
57752;SDS011;43583;53.132;6.574;2023-02-28T00:17:34;6.30;;;3.08;;
57752;SDS011;43583;53.132;6.574;2023-02-28T00:20:00;7.30;;;2.30;;
57752;SDS011;43583;53.132;6.574;2023-02-28T00:22:30;7.18;;;1.90;;
57752;SDS011;43583;53.132;6.574;2023-02-28T00:24:55;4.25;;;1.67;;
57752;SDS011;43583;53.132;6.574;2023-02-28T00:27:21;5.32;;;2.15;;
57752;SDS011;43583;53.132;6.574;2023-02-28T00:29:47;7.22;;;1.70;;
57752;SDS011;43583;53.132;6.574;2023-02-28T00:32:12;8.52;;;2.20;;
57752;SDS011;43583;53.132;6.574;2023-02-28T00:34:38;3.63;;;1.48;;
57752;SDS011;43583;53.132;6.574;2023-02-28T00:37:05;9.88;;;2.30;;
57752;SDS011;43583;53.132;6.574;2023-02-28T00:39:33;7.85;;;1.90;;
57752;SDS011;43583;53.132;6.574;2023-02-28T00:41:59;3.15;;;1.27;;
57752;SDS011;43583;53.132;6.574;2023-02-28T00:44:24;4.38;;;1.35;;
57752;SDS011;43583;53.132;6.574;2023-02-28T00:46:50;8.15;;;1.70;;
57752;SDS011;43583;53.132;6.574;2023-02-28T00:49:16;3.45;;;1.30;;
57752;SDS011;43583;53.132;6.574;2023-02-28T00:51:42;5.75;;;1.58;;
57752;SDS011;43583;53.132;6.574;2023-02-28T00:54:08;6.60;;;1.98;;
57752;SDS011;43583;53.132;6.574;2023-02-28T00:56:33;3.17;;;1.80;;
57752;SDS011;43583;53.132;6.574;2023-02-28T00:58:59;4.97;;;2.05;;
57752;SDS011;43583;53.132;6.574;2023-02-28T01:01:24;4.78;;;1.67;;
57752;SDS011;43583;53.132;6.574;2023-02-28T01:03:50;5.38;;;2.25;;
57752;SDS011;43583;53.132;6.574;2023-02-28T01:06:15;3.50;;;2.15;;
57752;SDS011;43583;53.132;6.574;2023-02-28T01:08:41;4.20;;;1.80;;
57752;SDS011;43583;53.132;6.574;2023-02-28T01:11:10;8.63;;;2.00;;
57752;SDS011;43583;53.132;6.574;2023-02-28T01:13:37;5.50;;;2.00;;
57752;SDS011;43583;53.132;6.574;2023-02-28T01:16:03;3.58;;;2.17;;
57752;SDS011;43583;53.132;6.574;2023-02-28T01:18:29;8.00;;;2.72;;
57752;SDS011;43583;53.132;6.574;2023-02-28T01:20:55;3.53;;;1.70;;
57752;SDS011;43583;53.132;6.574;2023-02-28T01:23:21;6.68;;;1.98;;
57752;SDS011;43583;53.132;6.574;2023-02-28T01:25:49;3.88;;;1.90;;
57752;SDS011;43583;53.132;6.574;2023-02-28T01:28:15;7.63;;;2.70;;
57752;SDS011;43583;53.132;6.574;2023-02-28T01:30:41;4.13;;;2.35;;
57752;SDS011;43583;53.132;6.574;2023-02-28T01:33:07;3.95;;;1.65;;
57752;SDS011;43583;53.132;6.574;2023-02-28T01:35:35;5.28;;;2.40;;
57752;SDS011;43583;53.132;6.574;2023-02-28T01:38:01;4.35;;;2.25;;
57752;SDS011;43583;53.132;6.574;2023-02-28T01:40:27;7.03;;;2.20;;
57752;SDS011;43583;53.132;6.574;2023-02-28T01:42:53;3.78;;;1.60;;
57752;SDS011;43583;53.132;6.574;2023-02-28T01:45:20;3.90;;;3.05;;
57752;SDS011;43583;53.132;6.574;2023-02-28T01:47:52;7.03;;;2.75;;
57752;SDS011;43583;53.132;6.574;2023-02-28T01:50:23;6.25;;;2.25;;
57752;SDS011;43583;53.132;6.574;2023-02-28T01:52:53;5.70;;;2.63;;
57752;SDS011;43583;53.132;6.574;2023-02-28T01:55:22;7.10;;;2.35;;
57752;SDS011;43583;53.132;6.574;2023-02-28T01:57:54;4.82;;;3.33;;
57752;SDS011;43583;53.132;6.574;2023-02-28T02:00:23;5.28;;;2.10;;
57752;SDS011;43583;53.132;6.574;2023-02-28T02:02:53;7.28;;;2.20;;
57752;SDS011;43583;53.132;6.574;2023-02-28T02:05:24;4.03;;;2.03;;
57752;SDS011;43583;53.132;6.574;2023-02-28T02:07:55;6.90;;;2.80;;
57752;SDS011;43583;53.132;6.574;2023-02-28T02:11:04;6.97;;;2.67;;
57752;SDS011;43583;53.132;6.574;2023-02-28T02:13:24;6.50;;;3.42;;
57752;SDS011;43583;53.132;6.574;2023-02-28T02:16:11;5.35;;;2.80;;
57752;SDS011;43583;53.132;6.574;2023-02-28T02:24:19;5.05;;;2.33;;
57752;SDS011;43583;53.132;6.574;2023-02-28T02:27:09;6.57;;;2.97;;
57752;SDS011;43583;53.132;6.574;2023-02-28T02:35:43;5.22;;;2.92;;
57752;SDS011;43583;53.132;6.574;2023-02-28T02:43:58;4.60;;;3.20;;
57752;SDS011;43583;53.132;6.574;2023-02-28T02:48:57;9.88;;;3.70;;
57752;SDS011;43583;53.132;6.574;2023-02-28T02:51:25;5.13;;;3.00;;
57752;SDS011;43583;53.132;6.574;2023-02-28T02:53:56;5.32;;;3.17;;
57752;SDS011;43583;53.132;6.574;2023-02-28T02:56:27;8.70;;;3.50;;
57752;SDS011;43583;53.132;6.574;2023-02-28T02:58:57;5.03;;;2.88;;
57752;SDS011;43583;53.132;6.574;2023-02-28T03:01:27;7.60;;;2.70;;
57752;SDS011;43583;53.132;6.574;2023-02-28T03:03:56;5.15;;;3.13;;
57752;SDS011;43583;53.132;6.574;2023-02-28T03:06:25;5.10;;;3.03;;
57752;SDS011;43583;53.132;6.574;2023-02-28T03:08:51;5.82;;;3.50;;
57752;SDS011;43583;53.132;6.574;2023-02-28T03:11:17;5.47;;;3.33;;
57752;SDS011;43583;53.132;6.574;2023-02-28T03:28:15;9.05;;;3.08;;
57752;SDS011;43583;53.132;6.574;2023-02-28T03:31:07;7.22;;;3.03;;
57752;SDS011;43583;53.132;6.574;2023-02-28T03:36:53;8.45;;;2.38;;
57752;SDS011;43583;53.132;6.574;2023-02-28T03:39:28;7.95;;;2.78;;
57752;SDS011;43583;53.132;6.574;2023-02-28T03:42:16;8.68;;;2.90;;
57752;SDS011;43583;53.132;6.574;2023-02-28T03:47:15;7.15;;;3.03;;
57752;SDS011;43583;53.132;6.574;2023-02-28T03:49:46;6.25;;;2.92;;
57752;SDS011;43583;53.132;6.574;2023-02-28T03:52:19;7.53;;;3.92;;
57752;SDS011;43583;53.132;6.574;2023-02-28T03:54:48;8.02;;;3.78;;
57752;SDS011;43583;53.132;6.574;2023-02-28T04:00:14;7.70;;;3.70;;
57752;SDS011;43583;53.132;6.574;2023-02-28T04:02:44;7.22;;;4.40;;
57752;SDS011;43583;53.132;6.574;2023-02-28T04:05:10;8.55;;;3.10;;
57752;SDS011;43583;53.132;6.574;2023-02-28T04:07:36;4.32;;;3.08;;
57752;SDS011;43583;53.132;6.574;2023-02-28T04:10:02;4.82;;;2.38;;
57752;SDS011;43583;53.132;6.574;2023-02-28T04:12:29;5.32;;;2.40;;
57752;SDS011;43583;53.132;6.574;2023-02-28T04:14:54;6.00;;;2.38;;
57752;SDS011;43583;53.132;6.574;2023-02-28T04:17:20;3.53;;;2.05;;
57752;SDS011;43583;53.132;6.574;2023-02-28T04:19:46;5.60;;;2.53;;
57752;SDS011;43583;53.132;6.574;2023-02-28T04:22:11;5.82;;;2.45;;
57752;SDS011;43583;53.132;6.574;2023-02-28T04:24:37;5.10;;;2.58;;
57752;SDS011;43583;53.132;6.574;2023-02-28T04:27:06;4.22;;;2.63;;
57752;SDS011;43583;53.132;6.574;2023-02-28T04:29:33;9.40;;;2.85;;
57752;SDS011;43583;53.132;6.574;2023-02-28T04:31:59;9.90;;;2.80;;
57752;SDS011;43583;53.132;6.574;2023-02-28T04:34:26;9.05;;;3.35;;
57752;SDS011;43583;53.132;6.574;2023-02-28T04:36:54;9.15;;;2.40;;
57752;SDS011;43583;53.132;6.574;2023-02-28T04:39:22;6.22;;;2.85;;
57752;SDS011;43583;53.132;6.574;2023-02-28T04:41:48;6.40;;;3.00;;
57752;SDS011;43583;53.132;6.574;2023-02-28T04:44:15;7.20;;;2.47;;
57752;SDS011;43583;53.132;6.574;2023-02-28T04:46:41;5.00;;;2.40;;
57752;SDS011;43583;53.132;6.574;2023-02-28T04:49:07;8.00;;;2.78;;
57752;SDS011;43583;53.132;6.574;2023-02-28T04:51:34;7.13;;;2.83;;
57752;SDS011;43583;53.132;6.574;2023-02-28T04:54:00;9.70;;;3.50;;
57752;SDS011;43583;53.132;6.574;2023-02-28T04:56:25;4.55;;;2.40;;
57752;SDS011;43583;53.132;6.574;2023-02-28T04:58:51;6.80;;;2.70;;
57752;SDS011;43583;53.132;6.574;2023-02-28T05:01:28;6.93;;;3.13;;
57752;SDS011;43583;53.132;6.574;2023-02-28T05:03:55;5.07;;;3.13;;
57752;SDS011;43583;53.132;6.574;2023-02-28T05:06:23;6.82;;;3.08;;
57752;SDS011;43583;53.132;6.574;2023-02-28T05:08:50;6.70;;;2.80;;
57752;SDS011;43583;53.132;6.574;2023-02-28T05:11:17;8.98;;;3.10;;
57752;SDS011;43583;53.132;6.574;2023-02-28T05:13:45;6.53;;;3.40;;
57752;SDS011;43583;53.132;6.574;2023-02-28T05:16:12;12.77;;;3.53;;
57752;SDS011;43583;53.132;6.574;2023-02-28T05:18:38;9.13;;;3.92;;
57752;SDS011;43583;53.132;6.574;2023-02-28T05:21:03;8.88;;;4.45;;
57752;SDS011;43583;53.132;6.574;2023-02-28T05:23:29;7.38;;;4.07;;
57752;SDS011;43583;53.132;6.574;2023-02-28T05:25:55;9.73;;;4.28;;
57752;SDS011;43583;53.132;6.574;2023-02-28T05:28:21;7.50;;;4.05;;
57752;SDS011;43583;53.132;6.574;2023-02-28T05:30:47;9.38;;;3.95;;
57752;SDS011;43583;53.132;6.574;2023-02-28T05:33:13;6.88;;;3.70;;
57752;SDS011;43583;53.132;6.574;2023-02-28T05:35:39;8.57;;;4.00;;
57752;SDS011;43583;53.132;6.574;2023-02-28T05:38:06;9.40;;;4.70;;
57752;SDS011;43583;53.132;6.574;2023-02-28T05:40:32;8.02;;;4.30;;
57752;SDS011;43583;53.132;6.574;2023-02-28T05:42:57;8.10;;;4.65;;
57752;SDS011;43583;53.132;6.574;2023-02-28T05:45:23;9.20;;;4.47;;
57752;SDS011;43583;53.132;6.574;2023-02-28T05:47:48;8.43;;;4.05;;
57752;SDS011;43583;53.132;6.574;2023-02-28T05:50:14;9.68;;;4.30;;
57752;SDS011;43583;53.132;6.574;2023-02-28T05:52:40;11.73;;;4.70;;
57752;SDS011;43583;53.132;6.574;2023-02-28T05:55:05;8.00;;;4.25;;
57752;SDS011;43583;53.132;6.574;2023-02-28T05:57:31;12.13;;;6.13;;
57752;SDS011;43583;53.132;6.574;2023-02-28T05:59:57;9.13;;;5.05;;
57752;SDS011;43583;53.132;6.574;2023-02-28T06:02:22;7.85;;;5.43;;
57752;SDS011;43583;53.132;6.574;2023-02-28T06:04:48;9.80;;;5.32;;
57752;SDS011;43583;53.132;6.574;2023-02-28T06:07:14;9.48;;;4.75;;
57752;SDS011;43583;53.132;6.574;2023-02-28T06:09:40;10.38;;;5.18;;
57752;SDS011;43583;53.132;6.574;2023-02-28T06:12:06;12.27;;;5.38;;
57752;SDS011;43583;53.132;6.574;2023-02-28T06:14:34;13.00;;;5.70;;
57752;SDS011;43583;53.132;6.574;2023-02-28T06:17:00;11.73;;;6.45;;
57752;SDS011;43583;53.132;6.574;2023-02-28T06:19:27;12.23;;;5.60;;
57752;SDS011;43583;53.132;6.574;2023-02-28T06:21:54;8.98;;;5.05;;
57752;SDS011;43583;53.132;6.574;2023-02-28T06:24:20;12.18;;;5.50;;
57752;SDS011;43583;53.132;6.574;2023-02-28T06:26:47;12.98;;;6.43;;
57752;SDS011;43583;53.132;6.574;2023-02-28T06:29:12;8.15;;;4.22;;
57752;SDS011;43583;53.132;6.574;2023-02-28T06:31:42;13.48;;;5.63;;
57752;SDS011;43583;53.132;6.574;2023-02-28T06:34:09;12.10;;;6.00;;
57752;SDS011;43583;53.132;6.574;2023-02-28T06:36:36;12.00;;;6.05;;
57752;SDS011;43583;53.132;6.574;2023-02-28T06:39:02;12.20;;;6.10;;
57752;SDS011;43583;53.132;6.574;2023-02-28T06:41:28;10.27;;;6.22;;
57752;SDS011;43583;53.132;6.574;2023-02-28T06:43:54;10.48;;;6.25;;
57752;SDS011;43583;53.132;6.574;2023-02-28T06:46:19;13.32;;;7.03;;
57752;SDS011;43583;53.132;6.574;2023-02-28T06:48:45;10.20;;;6.03;;
57752;SDS011;43583;53.132;6.574;2023-02-28T06:51:13;11.45;;;6.43;;
57752;SDS011;43583;53.132;6.574;2023-02-28T06:53:45;13.60;;;5.93;;
57752;SDS011;43583;53.132;6.574;2023-02-28T06:56:12;13.38;;;5.25;;
57752;SDS011;43583;53.132;6.574;2023-02-28T06:58:39;11.88;;;6.22;;
57752;SDS011;43583;53.132;6.574;2023-02-28T07:01:05;11.25;;;5.75;;
57752;SDS011;43583;53.132;6.574;2023-02-28T07:03:31;14.25;;;6.50;;
57752;SDS011;43583;53.132;6.574;2023-02-28T07:05:57;13.68;;;6.68;;
57752;SDS011;43583;53.132;6.574;2023-02-28T07:08:24;12.05;;;7.00;;
57752;SDS011;43583;53.132;6.574;2023-02-28T07:10:53;11.82;;;6.88;;
57752;SDS011;43583;53.132;6.574;2023-02-28T07:13:20;12.68;;;6.18;;
57752;SDS011;43583;53.132;6.574;2023-02-28T07:15:52;11.95;;;6.07;;
57752;SDS011;43583;53.132;6.574;2023-02-28T07:18:25;12.68;;;6.82;;
57752;SDS011;43583;53.132;6.574;2023-02-28T07:20:51;11.45;;;5.88;;
57752;SDS011;43583;53.132;6.574;2023-02-28T07:23:17;15.52;;;7.05;;
57752;SDS011;43583;53.132;6.574;2023-02-28T07:25:43;13.00;;;6.75;;
57752;SDS011;43583;53.132;6.574;2023-02-28T07:28:10;13.55;;;6.68;;
57752;SDS011;43583;53.132;6.574;2023-02-28T07:30:36;14.68;;;7.38;;
57752;SDS011;43583;53.132;6.574;2023-02-28T07:33:02;12.13;;;6.55;;
57752;SDS011;43583;53.132;6.574;2023-02-28T07:35:28;15.95;;;7.45;;
57752;SDS011;43583;53.132;6.574;2023-02-28T07:37:54;13.50;;;7.00;;
57752;SDS011;43583;53.132;6.574;2023-02-28T07:40:20;15.30;;;7.32;;
57752;SDS011;43583;53.132;6.574;2023-02-28T07:42:46;16.05;;;7.35;;
57752;SDS011;43583;53.132;6.574;2023-02-28T07:45:11;12.73;;;6.82;;
57752;SDS011;43583;53.132;6.574;2023-02-28T07:47:38;15.50;;;6.45;;
57752;SDS011;43583;53.132;6.574;2023-02-28T07:50:04;11.90;;;6.68;;
57752;SDS011;43583;53.132;6.574;2023-02-28T07:52:31;11.45;;;6.00;;
57752;SDS011;43583;53.132;6.574;2023-02-28T07:54:57;13.05;;;6.50;;
57752;SDS011;43583;53.132;6.574;2023-02-28T07:57:22;12.98;;;6.88;;
57752;SDS011;43583;53.132;6.574;2023-02-28T07:59:48;11.65;;;6.53;;
57752;SDS011;43583;53.132;6.574;2023-02-28T08:02:14;15.38;;;7.18;;
57752;SDS011;43583;53.132;6.574;2023-02-28T08:04:42;14.85;;;6.78;;
57752;SDS011;43583;53.132;6.574;2023-02-28T08:07:07;14.40;;;7.47;;
57752;SDS011;43583;53.132;6.574;2023-02-28T08:09:34;12.77;;;6.40;;
57752;SDS011;43583;53.132;6.574;2023-02-28T08:11:59;18.02;;;7.13;;
57752;SDS011;43583;53.132;6.574;2023-02-28T08:14:25;11.07;;;6.13;;
57752;SDS011;43583;53.132;6.574;2023-02-28T08:16:51;15.93;;;7.38;;
57752;SDS011;43583;53.132;6.574;2023-02-28T08:19:16;18.67;;;7.03;;
57752;SDS011;43583;53.132;6.574;2023-02-28T08:21:42;12.50;;;7.22;;
57752;SDS011;43583;53.132;6.574;2023-02-28T08:24:08;13.07;;;7.15;;
57752;SDS011;43583;53.132;6.574;2023-02-28T08:26:33;16.40;;;7.35;;
57752;SDS011;43583;53.132;6.574;2023-02-28T08:28:59;14.75;;;6.57;;
57752;SDS011;43583;53.132;6.574;2023-02-28T08:31:24;14.20;;;8.23;;
57752;SDS011;43583;53.132;6.574;2023-02-28T08:33:50;13.68;;;7.45;;
57752;SDS011;43583;53.132;6.574;2023-02-28T08:36:17;12.25;;;7.05;;
57752;SDS011;43583;53.132;6.574;2023-02-28T08:38:43;14.63;;;7.82;;
57752;SDS011;43583;53.132;6.574;2023-02-28T08:41:10;15.23;;;8.38;;
57752;SDS011;43583;53.132;6.574;2023-02-28T08:43:38;10.85;;;6.55;;
57752;SDS011;43583;53.132;6.574;2023-02-28T08:46:04;17.80;;;7.45;;
57752;SDS011;43583;53.132;6.574;2023-02-28T08:48:31;12.23;;;6.70;;
57752;SDS011;43583;53.132;6.574;2023-02-28T08:51:05;10.25;;;6.57;;
57752;SDS011;43583;53.132;6.574;2023-02-28T08:53:34;13.38;;;6.40;;
57752;SDS011;43583;53.132;6.574;2023-02-28T08:56:05;12.35;;;6.40;;
57752;SDS011;43583;53.132;6.574;2023-02-28T08:58:32;11.02;;;6.05;;
57752;SDS011;43583;53.132;6.574;2023-02-28T09:00:59;10.82;;;5.95;;
57752;SDS011;43583;53.132;6.574;2023-02-28T09:03:25;13.60;;;5.82;;
57752;SDS011;43583;53.132;6.574;2023-02-28T09:05:57;13.88;;;6.97;;
57752;SDS011;43583;53.132;6.574;2023-02-28T09:08:24;16.38;;;7.32;;
57752;SDS011;43583;53.132;6.574;2023-02-28T09:10:51;15.35;;;7.10;;
57752;SDS011;43583;53.132;6.574;2023-02-28T09:13:17;11.68;;;7.50;;
57752;SDS011;43583;53.132;6.574;2023-02-28T09:15:44;14.50;;;7.57;;
57752;SDS011;43583;53.132;6.574;2023-02-28T09:18:10;12.35;;;6.60;;
57752;SDS011;43583;53.132;6.574;2023-02-28T09:20:39;11.07;;;5.93;;
57752;SDS011;43583;53.132;6.574;2023-02-28T09:23:08;11.00;;;6.63;;
57752;SDS011;43583;53.132;6.574;2023-02-28T09:25:35;10.38;;;6.47;;
57752;SDS011;43583;53.132;6.574;2023-02-28T09:28:02;8.23;;;5.40;;
57752;SDS011;43583;53.132;6.574;2023-02-28T09:30:28;7.97;;;5.20;;
57752;SDS011;43583;53.132;6.574;2023-02-28T09:32:54;8.07;;;5.22;;
57752;SDS011;43583;53.132;6.574;2023-02-28T09:35:21;7.18;;;4.20;;
57752;SDS011;43583;53.132;6.574;2023-02-28T09:37:48;7.25;;;4.32;;
57752;SDS011;43583;53.132;6.574;2023-02-28T09:40:16;5.50;;;3.80;;
57752;SDS011;43583;53.132;6.574;2023-02-28T09:42:44;12.40;;;4.43;;
57752;SDS011;43583;53.132;6.574;2023-02-28T09:45:19;8.77;;;4.35;;
57752;SDS011;43583;53.132;6.574;2023-02-28T09:47:56;8.35;;;4.43;;
57752;SDS011;43583;53.132;6.574;2023-02-28T09:53:04;5.83;;;3.70;;
57752;SDS011;43583;53.132;6.574;2023-02-28T09:55:39;7.05;;;3.58;;
57752;SDS011;43583;53.132;6.574;2023-02-28T09:58:23;8.55;;;4.32;;
57752;SDS011;43583;53.132;6.574;2023-02-28T10:01:39;4.72;;;3.10;;
57752;SDS011;43583;53.132;6.574;2023-02-28T10:03:55;5.70;;;3.20;;
57752;SDS011;43583;53.132;6.574;2023-02-28T10:06:26;7.55;;;3.53;;
57752;SDS011;43583;53.132;6.574;2023-02-28T10:09:03;8.52;;;3.78;;
57752;SDS011;43583;53.132;6.574;2023-02-28T10:11:35;5.43;;;3.08;;
57752;SDS011;43583;53.132;6.574;2023-02-28T10:14:03;5.78;;;2.60;;
57752;SDS011;43583;53.132;6.574;2023-02-28T10:16:45;4.28;;;2.83;;
57752;SDS011;43583;53.132;6.574;2023-02-28T10:19:33;8.85;;;3.42;;
57752;SDS011;43583;53.132;6.574;2023-02-28T10:27:12;4.43;;;3.35;;
57752;SDS011;43583;53.132;6.574;2023-02-28T10:29:45;5.22;;;2.97;;
57752;SDS011;43583;53.132;6.574;2023-02-28T10:32:14;3.38;;;1.88;;
57752;SDS011;43583;53.132;6.574;2023-02-28T10:34:42;3.13;;;1.85;;
57752;SDS011;43583;53.132;6.574;2023-02-28T10:37:08;4.68;;;2.30;;
57752;SDS011;43583;53.132;6.574;2023-02-28T10:39:46;2.90;;;1.80;;
57752;SDS011;43583;53.132;6.574;2023-02-28T10:42:25;2.10;;;0.93;;
57752;SDS011;43583;53.132;6.574;2023-02-28T10:45:12;2.80;;;1.17;;
57752;SDS011;43583;53.132;6.574;2023-02-28T11:01:19;2.55;;;0.65;;
57752;SDS011;43583;53.132;6.574;2023-02-28T11:03:54;1.98;;;0.90;;
57752;SDS011;43583;53.132;6.574;2023-02-28T11:06:23;2.42;;;1.23;;
57752;SDS011;43583;53.132;6.574;2023-02-28T11:09:00;2.40;;;1.25;;
57752;SDS011;43583;53.132;6.574;2023-02-28T11:11:29;3.33;;;1.13;;
57752;SDS011;43583;53.132;6.574;2023-02-28T11:14:06;1.80;;;1.02;;
57752;SDS011;43583;53.132;6.574;2023-02-28T11:16:49;2.25;;;0.65;;
57752;SDS011;43583;53.132;6.574;2023-02-28T11:19:34;1.58;;;0.65;;
57752;SDS011;43583;53.132;6.574;2023-02-28T11:22:05;1.88;;;0.77;;
57752;SDS011;43583;53.132;6.574;2023-02-28T11:24:33;4.32;;;1.00;;
57752;SDS011;43583;53.132;6.574;2023-02-28T11:27:02;2.05;;;0.75;;
57752;SDS011;43583;53.132;6.574;2023-02-28T11:29:29;2.55;;;1.10;;
57752;SDS011;43583;53.132;6.574;2023-02-28T11:34:31;2.60;;;1.10;;
57752;SDS011;43583;53.132;6.574;2023-02-28T11:36:58;3.45;;;1.08;;
57752;SDS011;43583;53.132;6.574;2023-02-28T11:39:26;1.98;;;0.90;;
57752;SDS011;43583;53.132;6.574;2023-02-28T11:42:09;3.28;;;1.27;;
57752;SDS011;43583;53.132;6.574;2023-02-28T11:44:45;3.35;;;0.80;;
57752;SDS011;43583;53.132;6.574;2023-02-28T11:47:32;2.50;;;1.23;;
57752;SDS011;43583;53.132;6.574;2023-02-28T11:53:05;3.80;;;1.10;;
57752;SDS011;43583;53.132;6.574;2023-02-28T11:55:45;1.63;;;0.90;;
57752;SDS011;43583;53.132;6.574;2023-02-28T11:58:23;2.33;;;0.70;;
57752;SDS011;43583;53.132;6.574;2023-02-28T12:04:15;4.65;;;1.05;;
57752;SDS011;43583;53.132;6.574;2023-02-28T12:09:56;5.57;;;1.35;;
57752;SDS011;43583;53.132;6.574;2023-02-28T12:21:04;3.33;;;1.05;;
57752;SDS011;43583;53.132;6.574;2023-02-28T12:26:53;2.85;;;1.77;;
57752;SDS011;43583;53.132;6.574;2023-02-28T12:29:25;4.35;;;1.23;;
57752;SDS011;43583;53.132;6.574;2023-02-28T12:32:11;3.63;;;1.75;;
57752;SDS011;43583;53.132;6.574;2023-02-28T12:34:44;4.32;;;2.05;;
57752;SDS011;43583;53.132;6.574;2023-02-28T12:38:02;4.15;;;2.03;;
57752;SDS011;43583;53.132;6.574;2023-02-28T12:40:12;4.20;;;2.28;;
57752;SDS011;43583;53.132;6.574;2023-02-28T12:43:05;3.53;;;2.22;;
57752;SDS011;43583;53.132;6.574;2023-02-28T12:45:40;5.28;;;1.83;;
57752;SDS011;43583;53.132;6.574;2023-02-28T12:48:24;5.40;;;2.33;;
57752;SDS011;43583;53.132;6.574;2023-02-28T12:51:11;5.53;;;1.85;;
57752;SDS011;43583;53.132;6.574;2023-02-28T12:59:39;6.35;;;2.58;;
57752;SDS011;43583;53.132;6.574;2023-02-28T13:05:19;5.82;;;2.17;;
57752;SDS011;43583;53.132;6.574;2023-02-28T13:11:00;5.65;;;2.00;;
57752;SDS011;43583;53.132;6.574;2023-02-28T13:13:26;3.95;;;1.98;;
57752;SDS011;43583;53.132;6.574;2023-02-28T13:15:58;4.32;;;2.15;;
57752;SDS011;43583;53.132;6.574;2023-02-28T13:18:30;4.00;;;1.40;;
57752;SDS011;43583;53.132;6.574;2023-02-28T13:20:56;3.33;;;2.10;;
57752;SDS011;43583;53.132;6.574;2023-02-28T13:23:36;3.78;;;2.30;;
57752;SDS011;43583;53.132;6.574;2023-02-28T13:26:23;3.80;;;2.05;;
57752;SDS011;43583;53.132;6.574;2023-02-28T13:34:31;3.05;;;1.63;;
57752;SDS011;43583;53.132;6.574;2023-02-28T13:39:49;6.05;;;2.35;;
57752;SDS011;43583;53.132;6.574;2023-02-28T13:47:35;5.32;;;2.15;;
57752;SDS011;43583;53.132;6.574;2023-02-28T13:53:00;3.75;;;1.80;;
57752;SDS011;43583;53.132;6.574;2023-02-28T13:55:37;3.00;;;1.88;;
57752;SDS011;43583;53.132;6.574;2023-02-28T13:58:38;4.22;;;2.08;;
57752;SDS011;43583;53.132;6.574;2023-02-28T14:07:06;6.63;;;2.28;;
57752;SDS011;43583;53.132;6.574;2023-02-28T14:09:38;3.80;;;2.45;;
57752;SDS011;43583;53.132;6.574;2023-02-28T14:17:54;2.65;;;1.73;;
57752;SDS011;43583;53.132;6.574;2023-02-28T14:20:22;5.63;;;1.77;;
57752;SDS011;43583;53.132;6.574;2023-02-28T14:22:58;2.72;;;1.42;;
57752;SDS011;43583;53.132;6.574;2023-02-28T14:31:37;3.72;;;1.67;;
57752;SDS011;43583;53.132;6.574;2023-02-28T14:34:25;2.85;;;1.85;;
57752;SDS011;43583;53.132;6.574;2023-02-28T14:37:13;4.35;;;1.75;;
57752;SDS011;43583;53.132;6.574;2023-02-28T14:39:44;5.10;;;2.60;;
57752;SDS011;43583;53.132;6.574;2023-02-28T14:44:57;4.30;;;2.05;;
57752;SDS011;43583;53.132;6.574;2023-02-28T14:47:25;4.47;;;2.30;;
57752;SDS011;43583;53.132;6.574;2023-02-28T14:49:55;3.85;;;2.15;;
57752;SDS011;43583;53.132;6.574;2023-02-28T14:52:27;6.38;;;1.90;;
57752;SDS011;43583;53.132;6.574;2023-02-28T14:54:55;5.18;;;2.08;;
57752;SDS011;43583;53.132;6.574;2023-02-28T14:57:30;7.60;;;2.42;;
57752;SDS011;43583;53.132;6.574;2023-02-28T14:59:58;2.60;;;1.90;;
57752;SDS011;43583;53.132;6.574;2023-02-28T15:07:46;3.88;;;1.55;;
57752;SDS011;43583;53.132;6.574;2023-02-28T15:12:49;3.28;;;2.03;;
57752;SDS011;43583;53.132;6.574;2023-02-28T15:15:21;6.75;;;2.85;;
57752;SDS011;43583;53.132;6.574;2023-02-28T15:18:00;5.53;;;2.72;;
57752;SDS011;43583;53.132;6.574;2023-02-28T15:20:30;4.70;;;2.67;;
57752;SDS011;43583;53.132;6.574;2023-02-28T15:22:57;6.40;;;2.47;;
57752;SDS011;43583;53.132;6.574;2023-02-28T15:25:24;5.13;;;2.30;;
57752;SDS011;43583;53.132;6.574;2023-02-28T15:27:52;4.05;;;2.30;;
57752;SDS011;43583;53.132;6.574;2023-02-28T15:30:21;2.92;;;2.25;;
57752;SDS011;43583;53.132;6.574;2023-02-28T15:35:32;3.85;;;2.40;;
57752;SDS011;43583;53.132;6.574;2023-02-28T15:38:13;8.00;;;2.10;;
57752;SDS011;43583;53.132;6.574;2023-02-28T15:40:42;2.70;;;2.03;;
57752;SDS011;43583;53.132;6.574;2023-02-28T15:45:50;4.53;;;2.20;;
57752;SDS011;43583;53.132;6.574;2023-02-28T15:50:55;3.50;;;2.58;;
57752;SDS011;43583;53.132;6.574;2023-02-28T15:53:38;4.20;;;3.30;;
57752;SDS011;43583;53.132;6.574;2023-02-28T15:56:30;3.17;;;2.33;;
57752;SDS011;43583;53.132;6.574;2023-02-28T15:59:14;3.85;;;2.35;;
57752;SDS011;43583;53.132;6.574;2023-02-28T16:01:43;4.15;;;2.45;;
57752;SDS011;43583;53.132;6.574;2023-02-28T16:04:16;4.45;;;2.78;;
57752;SDS011;43583;53.132;6.574;2023-02-28T16:09:11;4.40;;;2.20;;
57752;SDS011;43583;53.132;6.574;2023-02-28T16:11:41;3.60;;;2.42;;
57752;SDS011;43583;53.132;6.574;2023-02-28T16:14:15;4.82;;;2.83;;
57752;SDS011;43583;53.132;6.574;2023-02-28T16:16:52;5.15;;;2.50;;
57752;SDS011;43583;53.132;6.574;2023-02-28T16:19:21;3.63;;;2.45;;
57752;SDS011;43583;53.132;6.574;2023-02-28T16:21:48;9.00;;;3.22;;
57752;SDS011;43583;53.132;6.574;2023-02-28T16:24:13;3.00;;;1.58;;
57752;SDS011;43583;53.132;6.574;2023-02-28T16:26:39;4.28;;;2.70;;
57752;SDS011;43583;53.132;6.574;2023-02-28T16:29:06;7.22;;;4.10;;
57752;SDS011;43583;53.132;6.574;2023-02-28T16:31:35;5.88;;;3.28;;
57752;SDS011;43583;53.132;6.574;2023-02-28T16:34:03;5.82;;;2.75;;
57752;SDS011;43583;53.132;6.574;2023-02-28T16:36:29;4.40;;;2.67;;
57752;SDS011;43583;53.132;6.574;2023-02-28T16:38:55;4.53;;;2.47;;
57752;SDS011;43583;53.132;6.574;2023-02-28T16:41:22;4.03;;;2.40;;
57752;SDS011;43583;53.132;6.574;2023-02-28T16:43:51;3.90;;;2.72;;
57752;SDS011;43583;53.132;6.574;2023-02-28T16:46:18;4.10;;;2.83;;
57752;SDS011;43583;53.132;6.574;2023-02-28T16:48:46;2.50;;;2.17;;
57752;SDS011;43583;53.132;6.574;2023-02-28T16:51:16;3.58;;;2.72;;
57752;SDS011;43583;53.132;6.574;2023-02-28T16:53:43;3.42;;;2.65;;
57752;SDS011;43583;53.132;6.574;2023-02-28T16:56:14;4.70;;;2.55;;
57752;SDS011;43583;53.132;6.574;2023-02-28T16:58:44;6.20;;;2.03;;
57752;SDS011;43583;53.132;6.574;2023-02-28T17:01:10;5.40;;;2.45;;
57752;SDS011;43583;53.132;6.574;2023-02-28T17:03:35;4.57;;;3.22;;
57752;SDS011;43583;53.132;6.574;2023-02-28T17:06:02;3.95;;;2.35;;
57752;SDS011;43583;53.132;6.574;2023-02-28T17:08:29;6.22;;;2.70;;
57752;SDS011;43583;53.132;6.574;2023-02-28T17:10:56;4.53;;;2.95;;
57752;SDS011;43583;53.132;6.574;2023-02-28T17:13:23;5.55;;;2.25;;
57752;SDS011;43583;53.132;6.574;2023-02-28T17:15:48;3.85;;;2.40;;
57752;SDS011;43583;53.132;6.574;2023-02-28T17:18:15;3.40;;;2.75;;
57752;SDS011;43583;53.132;6.574;2023-02-28T17:20:44;4.25;;;3.22;;
57752;SDS011;43583;53.132;6.574;2023-02-28T17:23:10;4.35;;;2.67;;
57752;SDS011;43583;53.132;6.574;2023-02-28T17:25:36;4.93;;;3.80;;
57752;SDS011;43583;53.132;6.574;2023-02-28T17:28:02;6.30;;;3.35;;
57752;SDS011;43583;53.132;6.574;2023-02-28T17:30:28;4.93;;;3.20;;
57752;SDS011;43583;53.132;6.574;2023-02-28T17:32:54;9.35;;;4.18;;
57752;SDS011;43583;53.132;6.574;2023-02-28T17:35:20;5.55;;;3.97;;